Time;durP1;ratioP1;P1;durP2;ratioP2;P2;SDS_P1;SDS_P2;PMS_P1;PMS_P2;Temp;Humidity;BMP_temperature;BMP_pressure;BME280_temperature;BME280_humidity;BME280_pressure;Samples;Min_cycle;Max_cycle;Signal;HPM_P1;HPM_P2
2022/11/17 00:01:17;;;;;;;;;;;9.40;99.90;;;;;;5053629;28;19909;-64
2022/11/17 00:03:43;;;;;;;;;;;9.40;99.90;;;;;;5053616;28;19909;-64
2022/11/17 00:06:08;;;;;;;;;;;9.40;99.90;;;;;;5052340;28;19932;-64
2022/11/17 00:08:33;;;;;;;;;;;9.40;99.90;;;;;;5053533;28;19964;-64
2022/11/17 00:11:00;;;;;;;;;;;9.40;99.90;;;;;;5053277;28;19924;-64
2022/11/17 00:16:12;;;;;;;;;;;9.40;99.90;;;;;;5053356;28;19916;-64
2022/11/17 00:21:25;;;;;;;;;;;9.50;99.90;;;;;;5053352;28;19909;-64
2022/11/17 00:23:52;;;;;;;;;;;9.50;99.90;;;;;;5052170;28;19932;-63
2022/11/17 00:26:19;;;;;;;;;;;9.50;99.90;;;;;;5053425;28;19945;-64
2022/11/17 00:28:45;;;;;;;;;;;9.50;99.90;;;;;;5052276;28;19909;-64
2022/11/17 00:34:04;;;;;;;;;;;9.50;99.90;;;;;;5055802;28;19964;-64
2022/11/17 00:36:38;;;;;;;;;;;9.50;99.90;;;;;;5057342;28;19915;-64
2022/11/17 00:39:04;;;;;;;;;;;9.60;99.90;;;;;;5057284;28;20289;-64
2022/11/17 00:41:29;;;;;;;;;;;9.60;99.90;;;;;;5055990;28;19991;-64
2022/11/17 00:43:55;;;;;;;;;;;9.60;99.90;;;;;;5057255;28;19908;-64
2022/11/17 00:46:20;;;;;;;;;;;9.60;99.90;;;;;;5056056;28;19908;-64
2022/11/17 00:48:46;;;;;;;;;;;9.60;99.90;;;;;;5057099;28;19908;-64
2022/11/17 00:51:11;;;;;;;;;;;9.60;99.90;;;;;;5056966;28;19913;-64
2022/11/17 00:53:37;;;;;;;;;;;9.60;99.90;;;;;;5057020;28;19919;-64
2022/11/17 00:56:02;;;;;;;;;;;9.60;99.90;;;;;;5056968;28;19909;-64
2022/11/17 00:58:28;;;;;;;;;;;9.60;99.90;;;;;;5056915;28;19908;-64
2022/11/17 01:00:53;;;;;;;;;;;9.60;99.90;;;;;;5056948;28;19913;-64
2022/11/17 01:03:19;;;;;;;;;;;9.70;99.90;;;;;;5055677;28;19948;-64
2022/11/17 01:05:44;;;;;;;;;;;9.60;99.90;;;;;;5056864;28;20378;-64
2022/11/17 01:08:10;;;;;;;;;;;9.60;99.90;;;;;;5056711;28;20009;-64
2022/11/17 01:10:35;;;;;;;;;;;9.60;99.90;;;;;;5056511;28;19909;-64
2022/11/17 01:13:00;;;;;;;;;;;9.60;99.90;;;;;;5056552;28;19916;-64
2022/11/17 01:15:26;;;;;;;;;;;9.60;99.90;;;;;;5056535;28;19913;-64
2022/11/17 01:17:51;;;;;;;;;;;9.60;99.90;;;;;;5055474;28;19999;-64
2022/11/17 01:20:17;;;;;;;;;;;9.60;99.90;;;;;;5056545;28;19913;-63
2022/11/17 01:22:43;;;;;;;;;;;9.50;99.90;;;;;;5055260;28;20430;-63
2022/11/17 01:25:08;;;;;;;;;;;9.40;99.90;;;;;;5056390;28;19909;-63
2022/11/17 01:27:34;;;;;;;;;;;9.40;99.90;;;;;;5056355;28;19915;-63
2022/11/17 01:29:59;;;;;;;;;;;9.30;99.90;;;;;;5056599;28;19909;-62
2022/11/17 01:32:25;;;;;;;;;;;9.30;99.90;;;;;;5056202;28;19913;-62
2022/11/17 01:34:50;;;;;;;;;;;9.20;99.90;;;;;;5056244;28;19909;-63
2022/11/17 01:37:19;;;;;;;;;;;9.20;99.90;;;;;;5056204;28;19992;-62
2022/11/17 01:39:44;;;;;;;;;;;9.10;99.90;;;;;;5056162;28;19913;-62
2022/11/17 01:42:15;;;;;;;;;;;9.00;99.90;;;;;;5056087;28;19932;-62
2022/11/17 01:44:44;;;;;;;;;;;9.00;99.90;;;;;;5055562;28;19909;-62
2022/11/17 01:47:14;;;;;;;;;;;8.90;99.90;;;;;;5056039;28;20375;-63
2022/11/17 01:49:39;;;;;;;;;;;8.90;99.90;;;;;;5055975;28;19913;-63
2022/11/17 01:52:06;;;;;;;;;;;8.90;99.90;;;;;;5055843;28;19962;-63
2022/11/17 01:54:32;;;;;;;;;;;8.90;99.90;;;;;;5055936;28;19909;-63
2022/11/17 01:57:00;;;;;;;;;;;8.90;99.90;;;;;;5055841;28;19917;-62
2022/11/17 01:59:29;;;;;;;;;;;8.90;99.90;;;;;;5055805;28;19951;-63
2022/11/17 02:01:54;;;;;;;;;;;8.90;99.90;;;;;;5055684;28;19916;-63
2022/11/17 02:04:21;;;;;;;;;;;8.90;99.90;;;;;;5055699;28;19909;-62
2022/11/17 02:06:48;;;;;;;;;;;8.90;99.90;;;;;;5037762;28;19949;-63
2022/11/17 02:09:13;;;;;;;;;;;8.90;99.90;;;;;;5055622;28;19916;-63
2022/11/17 02:11:39;;;;;;;;;;;8.90;99.90;;;;;;5055294;28;19920;-63
2022/11/17 02:14:05;;;;;;;;;;;8.90;99.90;;;;;;5055555;28;20024;-63
2022/11/17 02:16:31;;;;;;;;;;;8.90;99.90;;;;;;5055539;28;20006;-63
2022/11/17 02:18:56;;;;;;;;;;;8.90;99.90;;;;;;5055449;28;19995;-63
2022/11/17 02:21:42;;;;;;;;;;;8.90;99.90;;;;;;5054192;28;19913;-63
2022/11/17 02:24:18;;;;;;;;;;;8.90;99.90;;;;;;5055328;28;20264;-63
2022/11/17 02:27:03;;;;;;;;;;;8.90;99.90;;;;;;5055275;28;20263;-63
2022/11/17 02:29:35;;;;;;;;;;;9.00;99.90;;;;;;5055243;28;20263;-63
2022/11/17 02:32:21;;;;;;;;;;;9.00;99.90;;;;;;5055115;28;19913;-62
2022/11/17 02:34:49;;;;;;;;;;;9.00;99.90;;;;;;5055135;28;19931;-63
2022/11/17 02:37:18;;;;;;;;;;;9.00;99.90;;;;;;5055354;28;19915;-63
2022/11/17 02:39:54;;;;;;;;;;;9.00;99.90;;;;;;5055036;28;19908;-63
2022/11/17 02:44:02;;;;;;;;;;;9.00;99.90;;;;;;5055016;28;19908;-63
2022/11/17 02:45:14;;;;;;;;;;;9.00;99.90;;;;;;5054786;28;19937;-63
2022/11/17 02:47:41;;;;;;;;;;;9.00;99.90;;;;;;5054883;28;19959;-63
2022/11/17 02:50:08;;;;;;;;;;;9.10;99.90;;;;;;5054851;28;20259;-63
2022/11/17 02:52:33;;;;;;;;;;;9.00;99.90;;;;;;5054763;28;19913;-63
2022/11/17 02:54:59;;;;;;;;;;;9.00;99.90;;;;;;5054366;28;20405;-63
2022/11/17 02:57:25;;;;;;;;;;;9.00;99.90;;;;;;5054514;28;19916;-63
2022/11/17 02:59:51;;;;;;;;;;;9.00;99.90;;;;;;5054657;28;19916;-64
2022/11/17 03:02:32;;;;;;;;;;;9.00;99.90;;;;;;5054630;28;20375;-63
2022/11/17 03:05:15;;;;;;;;;;;9.00;99.90;;;;;;5054545;28;19909;-63
2022/11/17 03:07:55;;;;;;;;;;;9.00;99.90;;;;;;5054500;28;19909;-64
2022/11/17 03:10:27;;;;;;;;;;;9.10;99.90;;;;;;5054594;28;19909;-63
2022/11/17 03:12:58;;;;;;;;;;;9.00;99.90;;;;;;5054089;28;19920;-63
2022/11/17 03:15:28;;;;;;;;;;;9.00;99.90;;;;;;5054421;28;19915;-63
2022/11/17 03:18:01;;;;;;;;;;;9.00;99.90;;;;;;5054354;28;19950;-64
2022/11/17 03:20:32;;;;;;;;;;;9.00;99.90;;;;;;5054265;28;19909;-63
2022/11/17 03:23:01;;;;;;;;;;;9.00;99.90;;;;;;5053083;28;19913;-63
2022/11/17 03:25:30;;;;;;;;;;;8.90;99.90;;;;;;5054174;28;19958;-63
2022/11/17 03:27:58;;;;;;;;;;;8.90;99.90;;;;;;5054138;28;19916;-64
2022/11/17 03:30:24;;;;;;;;;;;9.00;99.90;;;;;;5054075;28;19908;-64
2022/11/17 03:32:53;;;;;;;;;;;9.00;99.90;;;;;;5036142;28;19975;-63
2022/11/17 03:35:22;;;;;;;;;;;9.00;99.90;;;;;;5054023;28;20341;-64
2022/11/17 03:37:50;;;;;;;;;;;9.00;99.90;;;;;;5053978;28;20370;-63
2022/11/17 03:40:18;;;;;;;;;;;8.90;99.90;;;;;;5054221;28;19955;-64
2022/11/17 03:42:45;;;;;;;;;;;9.00;99.90;;;;;;5053885;28;19955;-63
2022/11/17 03:45:20;;;;;;;;;;;8.90;99.90;;;;;;5053825;28;20294;-63
2022/11/17 03:47:47;;;;;;;;;;;9.00;99.90;;;;;;5053804;28;19909;-63
2022/11/17 03:50:17;;;;;;;;;;;8.90;99.90;;;;;;5053806;28;20341;-63
2022/11/17 03:52:43;;;;;;;;;;;8.90;99.90;;;;;;5053910;28;19920;-64
2022/11/17 03:55:09;;;;;;;;;;;9.00;99.90;;;;;;5053740;28;19908;-63
2022/11/17 03:57:53;;;;;;;;;;;9.00;99.90;;;;;;5053691;28;20267;-63
2022/11/17 04:00:19;;;;;;;;;;;9.00;99.90;;;;;;5053930;28;19913;-64
2022/11/17 04:02:45;;;;;;;;;;;8.90;99.90;;;;;;5053621;28;19967;-64
2022/11/17 04:05:11;;;;;;;;;;;9.00;99.90;;;;;;5053626;28;19915;-63
2022/11/17 04:07:39;;;;;;;;;;;8.90;99.90;;;;;;5053702;28;19909;-63
2022/11/17 04:10:06;;;;;;;;;;;9.00;99.90;;;;;;5053841;28;20278;-63
2022/11/17 04:18:03;;;;;;;;;;;8.90;99.90;;;;;;5053271;28;19916;-63
2022/11/17 04:20:35;;;;;;;;;;;8.80;99.90;;;;;;5053433;28;19916;-63
2022/11/17 04:23:10;;;;;;;;;;;8.80;99.90;;;;;;5053683;28;19952;-63
2022/11/17 04:28:37;;;;;;;;;;;8.80;99.90;;;;;;5053224;28;19909;-63
2022/11/17 04:31:19;;;;;;;;;;;8.80;99.90;;;;;;5053569;28;20016;-63
2022/11/17 04:33:46;;;;;;;;;;;8.80;99.90;;;;;;5035415;28;19919;-63
2022/11/17 04:36:13;;;;;;;;;;;8.80;99.90;;;;;;5053306;28;19916;-63
2022/11/17 04:38:40;;;;;;;;;;;8.80;99.90;;;;;;5053270;28;19963;-64
2022/11/17 04:43:52;;;;;;;;;;;8.80;99.90;;;;;;5053056;28;20294;-63
2022/11/17 04:46:18;;;;;;;;;;;8.70;99.90;;;;;;5052249;28;19913;-63
2022/11/17 04:48:44;;;;;;;;;;;8.80;99.90;;;;;;5053441;28;20367;-63
2022/11/17 04:51:10;;;;;;;;;;;8.70;99.90;;;;;;5053340;28;20039;-63
2022/11/17 04:53:35;;;;;;;;;;;8.70;99.90;;;;;;5053419;28;20062;-63
2022/11/17 04:56:01;;;;;;;;;;;8.80;99.90;;;;;;5053176;28;20370;-63
2022/11/17 04:58:27;;;;;;;;;;;8.80;99.90;;;;;;5053115;28;20332;-64
2022/11/17 05:00:52;;;;;;;;;;;8.80;99.90;;;;;;5053305;28;19936;-63
2022/11/17 05:03:18;;;;;;;;;;;8.80;99.90;;;;;;5053072;28;19913;-63
2022/11/17 05:05:44;;;;;;;;;;;8.80;99.90;;;;;;5053239;28;20384;-63
2022/11/17 05:08:09;;;;;;;;;;;8.80;99.90;;;;;;5052944;28;19955;-63
2022/11/17 05:13:20;;;;;;;;;;;8.80;99.90;;;;;;5052720;28;19958;-64
2022/11/17 05:18:32;;;;;;;;;;;8.70;99.90;;;;;;5052882;28;20406;-62
2022/11/17 05:21:01;;;;;;;;;;;8.70;99.90;;;;;;5056599;28;19959;-64
2022/11/17 05:23:57;;;;;;;;;;;8.70;99.90;;;;;;5056580;28;19913;-63
2022/11/17 05:26:12;;;;;;;;;;;8.70;99.90;;;;;;5056244;28;19955;-63
2022/11/17 05:28:37;;;;;;;;;;;8.70;99.90;;;;;;5056690;28;19913;-63
2022/11/17 05:31:03;;;;;;;;;;;8.70;99.90;;;;;;5056309;28;19916;-63
2022/11/17 05:33:28;;;;;;;;;;;8.70;99.90;;;;;;5056277;28;19916;-63
2022/11/17 05:35:54;;;;;;;;;;;8.70;99.90;;;;;;5056463;28;19916;-63
2022/11/17 05:38:19;;;;;;;;;;;8.70;99.90;;;;;;5055056;28;19916;-64
2022/11/17 05:40:45;;;;;;;;;;;8.70;99.90;;;;;;5056190;28;19912;-63
2022/11/17 05:43:10;;;;;;;;;;;8.70;99.90;;;;;;5056142;28;19909;-63
2022/11/17 05:45:35;;;;;;;;;;;8.70;99.90;;;;;;5056092;28;19915;-64
2022/11/17 05:48:01;;;;;;;;;;;8.70;99.90;;;;;;5056294;28;19951;-63
2022/11/17 05:50:26;;;;;;;;;;;8.70;99.90;;;;;;5056021;28;19931;-63
2022/11/17 05:52:52;;;;;;;;;;;8.70;99.90;;;;;;5054836;28;20294;-63
2022/11/17 05:55:17;;;;;;;;;;;8.80;99.90;;;;;;5055918;28;20371;-63
2022/11/17 05:57:43;;;;;;;;;;;8.80;99.90;;;;;;5055871;28;19909;-64
2022/11/17 06:00:09;;;;;;;;;;;8.80;99.90;;;;;;5056095;28;19909;-63
2022/11/17 06:02:40;;;;;;;;;;;8.80;99.90;;;;;;5055987;28;20392;-63
2022/11/17 06:05:06;;;;;;;;;;;8.80;99.90;;;;;;5055999;28;19909;-63
2022/11/17 06:07:33;;;;;;;;;;;8.80;99.90;;;;;;5055660;28;19954;-63
2022/11/17 06:09:58;;;;;;;;;;;8.90;99.90;;;;;;5055596;28;20366;-64
2022/11/17 06:12:24;;;;;;;;;;;8.90;99.90;;;;;;5055435;28;20062;-64
2022/11/17 06:14:49;;;;;;;;;;;8.80;99.90;;;;;;5055555;28;19908;-64
2022/11/17 06:17:19;;;;;;;;;;;8.90;99.90;;;;;;5055496;28;19909;-63
2022/11/17 06:19:48;;;;;;;;;;;8.90;99.90;;;;;;5055734;28;19991;-64
2022/11/17 06:22:13;;;;;;;;;;;8.90;99.90;;;;;;5055396;28;19992;-63
2022/11/17 06:24:41;;;;;;;;;;;8.90;99.90;;;;;;5055354;28;20358;-64
2022/11/17 06:27:06;;;;;;;;;;;8.90;99.90;;;;;;5055292;28;19909;-64
2022/11/17 06:29:32;;;;;;;;;;;8.90;99.90;;;;;;5055251;28;19995;-64
2022/11/17 06:31:58;;;;;;;;;;;8.90;99.90;;;;;;5055151;28;20317;-64
2022/11/17 06:34:24;;;;;;;;;;;8.90;99.90;;;;;;5055196;28;19909;-64
2022/11/17 06:36:49;;;;;;;;;;;8.90;99.90;;;;;;5055034;28;19955;-64
2022/11/17 06:39:15;;;;;;;;;;;8.90;99.90;;;;;;5054180;28;19909;-63
2022/11/17 06:41:40;;;;;;;;;;;9.00;99.90;;;;;;5055008;28;19947;-64
2022/11/17 06:44:06;;;;;;;;;;;9.00;99.90;;;;;;5055007;28;19909;-64
2022/11/17 06:46:36;;;;;;;;;;;9.00;99.90;;;;;;5054891;28;19915;-64
2022/11/17 06:49:04;;;;;;;;;;;9.00;99.90;;;;;;5054937;28;19912;-64
2022/11/17 06:51:29;;;;;;;;;;;9.00;99.90;;;;;;5054786;28;20286;-65
2022/11/17 06:53:55;;;;;;;;;;;9.00;99.90;;;;;;5074763;28;19908;-64
2022/11/17 06:56:20;;;;;;;;;;;9.00;99.90;;;;;;5073279;28;20003;-64
2022/11/17 06:58:46;;;;;;;;;;;9.00;99.90;;;;;;5065689;28;20283;-64
2022/11/17 07:01:12;;;;;;;;;;;9.10;99.90;;;;;;5066900;28;19916;-66
2022/11/17 07:03:39;;;;;;;;;;;9.10;99.90;;;;;;5067639;28;20586;-64
2022/11/17 07:06:05;;;;;;;;;;;9.10;99.90;;;;;;5067813;28;19999;-64
2022/11/17 07:08:31;;;;;;;;;;;9.20;99.90;;;;;;5074812;28;20282;-64
2022/11/17 07:11:05;;;;;;;;;;;9.20;99.90;;;;;;5066185;28;20442;-64
2022/11/17 07:13:32;;;;;;;;;;;9.20;99.90;;;;;;5071351;28;20460;-64
2022/11/17 07:16:02;;;;;;;;;;;9.20;99.90;;;;;;5064903;28;20285;-64
2022/11/17 07:18:27;;;;;;;;;;;9.10;99.90;;;;;;5073935;28;19916;-64
2022/11/17 07:20:53;;;;;;;;;;;9.10;99.90;;;;;;5070179;28;19912;-65
2022/11/17 07:23:18;;;;;;;;;;;9.10;99.90;;;;;;5063496;28;19913;-64
2022/11/17 07:25:43;;;;;;;;;;;9.10;99.90;;;;;;5062807;28;19927;-64
2022/11/17 07:28:09;;;;;;;;;;;9.10;99.90;;;;;;5066628;28;19916;-64
2022/11/17 07:30:35;;;;;;;;;;;9.10;99.90;;;;;;5066470;28;19913;-65
2022/11/17 07:33:00;;;;;;;;;;;9.10;99.90;;;;;;5071058;28;19916;-64
2022/11/17 07:35:26;;;;;;;;;;;9.10;99.90;;;;;;5074093;28;19916;-64
2022/11/17 07:37:56;;;;;;;;;;;9.10;99.90;;;;;;5074303;28;19920;-64
2022/11/17 07:40:21;;;;;;;;;;;9.10;99.90;;;;;;5075687;28;20510;-64
2022/11/17 07:42:47;;;;;;;;;;;9.10;99.90;;;;;;5068652;28;19912;-64
2022/11/17 07:45:13;;;;;;;;;;;9.10;99.90;;;;;;5065872;28;20363;-64
2022/11/17 07:47:38;;;;;;;;;;;9.10;99.90;;;;;;5070148;28;19923;-64
2022/11/17 07:50:04;;;;;;;;;;;9.20;99.90;;;;;;5065672;28;19920;-64
2022/11/17 07:52:30;;;;;;;;;;;9.30;99.90;;;;;;5080719;28;20327;-64
2022/11/17 07:54:55;;;;;;;;;;;9.40;99.90;;;;;;5064629;28;19923;-65
2022/11/17 07:57:20;;;;;;;;;;;9.40;99.90;;;;;;5074099;28;19919;-64
2022/11/17 07:59:46;;;;;;;;;;;9.50;99.90;;;;;;5071167;28;19918;-64
2022/11/17 08:02:11;;;;;;;;;;;9.40;99.90;;;;;;5064949;28;20366;-65
2022/11/17 08:04:37;;;;;;;;;;;9.50;99.90;;;;;;5056458;28;19913;-64
2022/11/17 08:07:02;;;;;;;;;;;9.50;99.90;;;;;;5060242;28;19913;-64
2022/11/17 08:09:28;;;;;;;;;;;9.60;99.90;;;;;;5061116;28;19916;-64
2022/11/17 08:11:53;;;;;;;;;;;9.60;99.90;;;;;;5072955;28;19920;-64
2022/11/17 08:14:19;;;;;;;;;;;9.60;99.90;;;;;;5059516;28;19974;-64
2022/11/17 08:16:44;;;;;;;;;;;9.60;99.90;;;;;;5064860;28;20290;-64
2022/11/17 08:19:10;;;;;;;;;;;9.60;99.90;;;;;;5060584;28;19917;-65
2022/11/17 08:21:36;;;;;;;;;;;9.70;99.90;;;;;;5064502;28;20069;-64
2022/11/17 08:24:02;;;;;;;;;;;9.60;99.90;;;;;;5072386;28;20007;-63
2022/11/17 08:26:27;;;;;;;;;;;9.70;99.90;;;;;;5075340;28;20069;-64
2022/11/17 08:28:53;;;;;;;;;;;9.70;99.90;;;;;;5075732;28;19919;-63
2022/11/17 08:31:18;;;;;;;;;;;9.70;99.90;;;;;;5071817;28;19978;-63
2022/11/17 08:33:44;;;;;;;;;;;9.80;99.90;;;;;;5068376;28;19917;-64
2022/11/17 08:36:09;;;;;;;;;;;9.70;99.90;;;;;;5050719;28;20293;-63
2022/11/17 08:38:34;;;;;;;;;;;9.80;99.90;;;;;;5067931;28;19912;-65
2022/11/17 08:41:01;;;;;;;;;;;9.70;99.90;;;;;;5066069;28;20004;-64
2022/11/17 08:43:27;;;;;;;;;;;9.80;99.90;;;;;;5049144;28;19916;-65
2022/11/17 08:45:52;;;;;;;;;;;9.80;99.90;;;;;;5069416;28;19958;-63
2022/11/17 08:48:18;;;;;;;;;;;9.70;99.90;;;;;;5061270;28;19916;-64
2022/11/17 08:50:43;;;;;;;;;;;9.80;99.90;;;;;;5072267;28;20440;-64
2022/11/17 08:53:13;;;;;;;;;;;9.80;99.90;;;;;;5065112;28;19963;-64
2022/11/17 08:55:38;;;;;;;;;;;9.80;99.90;;;;;;5074765;28;20383;-63
2022/11/17 08:58:04;;;;;;;;;;;9.80;99.90;;;;;;5053196;28;20040;-63
2022/11/17 09:00:29;;;;;;;;;;;9.90;99.90;;;;;;5076141;28;19916;-64
2022/11/17 09:02:55;;;;;;;;;;;9.90;99.90;;;;;;5072426;28;19948;-64
2022/11/17 09:05:20;;;;;;;;;;;9.90;99.90;;;;;;5072920;28;19920;-63
2022/11/17 09:07:46;;;;;;;;;;;9.80;99.90;;;;;;5057554;28;19912;-63
2022/11/17 09:10:11;;;;;;;;;;;9.80;99.90;;;;;;5060274;28;19965;-64
2022/11/17 09:12:37;;;;;;;;;;;9.90;99.90;;;;;;5074177;28;19982;-64
2022/11/17 09:15:03;;;;;;;;;;;9.90;99.90;;;;;;5075435;28;19923;-63
2022/11/17 09:17:29;;;;;;;;;;;9.90;99.90;;;;;;5064540;28;19923;-64
2022/11/17 09:19:55;;;;;;;;;;;9.90;99.90;;;;;;5073710;28;20003;-63
2022/11/17 09:22:20;;;;;;;;;;;9.90;99.90;;;;;;5074199;28;19960;-63
2022/11/17 09:24:45;;;;;;;;;;;9.90;99.90;;;;;;5075583;28;20380;-63
2022/11/17 09:27:12;;;;;;;;;;;9.90;99.90;;;;;;5074835;28;19919;-64
2022/11/17 09:29:38;;;;;;;;;;;10.00;99.90;;;;;;5074692;28;19935;-64
2022/11/17 09:32:03;;;;;;;;;;;10.00;99.90;;;;;;5071019;28;19954;-64
2022/11/17 09:34:29;;;;;;;;;;;10.00;99.90;;;;;;5076391;28;19936;-64
2022/11/17 09:36:54;;;;;;;;;;;10.00;99.90;;;;;;5075679;28;19952;-63
2022/11/17 09:39:20;;;;;;;;;;;10.00;99.90;;;;;;5070975;28;19919;-63
2022/11/17 09:41:48;;;;;;;;;;;10.10;99.90;;;;;;5071044;28;19965;-64
2022/11/17 09:47:07;;;;;;;;;;;10.20;99.90;;;;;;5087240;27;19917;-66
2022/11/17 09:49:52;;;;;;;;;;;10.30;99.90;;;;;;5097624;28;20430;-63
2022/11/17 09:52:20;;;;;;;;;;;10.40;99.90;;;;;;5068282;28;20389;-63
2022/11/17 09:54:49;;;;;;;;;;;10.40;99.90;;;;;;5072040;28;19963;-63
2022/11/17 09:57:20;;;;;;;;;;;10.50;99.90;;;;;;5076256;28;19952;-64
2022/11/17 09:59:48;;;;;;;;;;;10.50;99.90;;;;;;5079684;28;19963;-63
2022/11/17 10:02:14;;;;;;;;;;;10.50;99.90;;;;;;5082405;28;19919;-64
2022/11/17 10:04:39;;;;;;;;;;;10.60;99.90;;;;;;5070592;28;20366;-64
2022/11/17 10:07:05;;;;;;;;;;;10.50;99.90;;;;;;5075012;28;19919;-63
2022/11/17 10:09:37;;;;;;;;;;;10.50;99.90;;;;;;5083521;28;19917;-65
2022/11/17 10:12:19;;;;;;;;;;;10.50;99.90;;;;;;5050967;28;20442;-65
2022/11/17 10:14:46;;;;;;;;;;;10.50;99.90;;;;;;5067086;28;19912;-65
2022/11/17 10:17:12;;;;;;;;;;;10.40;99.90;;;;;;5076793;28;19920;-66
2022/11/17 10:19:38;;;;;;;;;;;10.40;99.90;;;;;;5071674;28;19913;-65
2022/11/17 10:24:46;;;;;;;;;;;10.40;99.90;;;;;;5068012;28;19924;-67
2022/11/17 10:30:14;;;;;;;;;;;10.50;99.90;;;;;;5068001;28;20290;-64
2022/11/17 10:32:48;;;;;;;;;;;10.60;99.90;;;;;;5063507;28;19951;-64
2022/11/17 10:35:34;;;;;;;;;;;10.70;99.90;;;;;;5087685;28;19913;-64
2022/11/17 10:38:05;;;;;;;;;;;10.80;99.90;;;;;;5049665;28;20329;-65
2022/11/17 10:40:43;;;;;;;;;;;10.90;99.90;;;;;;5052243;28;20379;-65
2022/11/17 10:45:53;;;;;;;;;;;11.20;99.90;;;;;;5083943;27;1882811;-64
2022/11/17 10:48:35;;;;;;;;;;;11.30;99.90;;;;;;5116020;28;19912;-65
2022/11/17 10:51:01;;;;;;;;;;;11.40;99.90;;;;;;5122785;27;19922;-66
2022/11/17 10:53:28;;;;;;;;;;;11.40;99.90;;;;;;5119065;27;19994;-65
2022/11/17 10:55:56;;;;;;;;;;;11.40;99.90;;;;;;5133111;27;19972;-65
2022/11/17 10:58:24;;;;;;;;;;;11.40;99.90;;;;;;5127004;27;20034;-65
2022/11/17 11:00:51;;;;;;;;;;;11.50;99.90;;;;;;5138408;27;19911;-64
2022/11/17 11:03:18;;;;;;;;;;;11.50;99.90;;;;;;5145630;27;20387;-66
2022/11/17 11:06:04;;;;;;;;;;;11.50;99.90;;;;;;5127340;27;20002;-65
2022/11/17 11:11:19;;;;;;;;;;;11.20;99.90;;;;;;5088129;27;19917;-64
2022/11/17 11:13:48;;;;;;;;;;;11.20;99.90;;;;;;5083678;28;20003;-64
2022/11/17 11:16:14;;;;;;;;;;;11.20;99.90;;;;;;5080966;28;19920;-64
2022/11/17 11:18:39;;;;;;;;;;;11.20;99.90;;;;;;5085697;28;19917;-64
2022/11/17 11:24:18;;;;;;;;;;;11.30;99.90;;;;;;5079723;27;19917;-64
2022/11/17 11:27:03;;;;;;;;;;;11.40;99.90;;;;;;5075448;28;19921;-65
2022/11/17 11:29:49;;;;;;;;;;;11.40;99.90;;;;;;5069697;28;19920;-65
2022/11/17 11:32:21;;;;;;;;;;;11.50;99.90;;;;;;5063580;28;19924;-65
2022/11/17 11:35:06;;;;;;;;;;;11.60;99.90;;;;;;5069883;28;19924;-64
2022/11/17 11:37:34;;;;;;;;;;;11.70;99.90;;;;;;5074798;28;19923;-65
2022/11/17 11:40:14;;;;;;;;;;;11.90;99.90;;;;;;5069374;28;19916;-64
2022/11/17 11:42:45;;;;;;;;;;;12.10;99.90;;;;;;5069057;28;19920;-64
2022/11/17 11:45:15;;;;;;;;;;;12.20;99.90;;;;;;5079945;28;19913;-64
2022/11/17 11:47:49;;;;;;;;;;;12.40;99.90;;;;;;5066076;28;19916;-64
2022/11/17 11:50:15;;;;;;;;;;;12.50;99.90;;;;;;5076856;28;19920;-64
2022/11/17 11:52:44;;;;;;;;;;;12.70;99.90;;;;;;5067570;28;19913;-64
2022/11/17 11:55:28;;;;;;;;;;;12.80;99.90;;;;;;5073735;28;20390;-66
2022/11/17 11:58:13;;;;;;;;;;;12.80;99.90;;;;;;5061271;28;19921;-66
2022/11/17 12:00:40;;;;;;;;;;;12.80;99.90;;;;;;5057201;28;20348;-64
2022/11/17 12:03:25;;;;;;;;;;;12.80;99.90;;;;;;5067098;28;19916;-64
2022/11/17 12:06:42;;;;;;;;;;;12.80;99.90;;;;;;5060189;28;19919;-67
2022/11/17 12:09:16;;;;;;;;;;;12.80;99.90;;;;;;5073967;28;19974;-65
2022/11/17 12:12:13;;;;;;;;;;;12.90;99.90;;;;;;5067373;28;20382;-64
2022/11/17 12:14:28;;;;;;;;;;;12.80;99.90;;;;;;5066687;28;19920;-65
2022/11/17 12:17:14;;;;;;;;;;;12.80;99.90;;;;;;5067108;28;20011;-65
2022/11/17 12:19:50;;;;;;;;;;;12.80;99.90;;;;;;5069052;28;19916;-66
2022/11/17 12:25:17;;;;;;;;;;;12.90;99.90;;;;;;5048152;28;19923;-65
2022/11/17 12:27:47;;;;;;;;;;;12.90;99.90;;;;;;5024572;28;20007;-65
2022/11/17 12:30:32;;;;;;;;;;;13.00;99.90;;;;;;5037236;28;19913;-65
2022/11/17 12:32:59;;;;;;;;;;;13.10;99.90;;;;;;5026765;28;20040;-65
2022/11/17 12:35:25;;;;;;;;;;;13.00;99.90;;;;;;5023008;28;20000;-67
2022/11/17 12:38:11;;;;;;;;;;;12.90;99.90;;;;;;5041475;28;19913;-65
2022/11/17 12:40:40;;;;;;;;;;;12.90;99.90;;;;;;5036813;28;19959;-65
2022/11/17 12:43:21;;;;;;;;;;;13.00;99.90;;;;;;5024156;28;19953;-65
2022/11/17 12:45:57;;;;;;;;;;;13.00;99.90;;;;;;5062528;28;19913;-65
2022/11/17 12:48:24;;;;;;;;;;;13.00;99.90;;;;;;5018580;28;19917;-64
2022/11/17 12:50:54;;;;;;;;;;;13.00;99.90;;;;;;5026163;28;19921;-65
2022/11/17 12:53:24;;;;;;;;;;;13.10;99.90;;;;;;5032274;28;19928;-64
2022/11/17 12:56:09;;;;;;;;;;;13.00;99.90;;;;;;5044191;28;19921;-65
2022/11/17 12:58:54;;;;;;;;;;;13.00;99.90;;;;;;5022318;28;19913;-64
2022/11/17 13:01:40;;;;;;;;;;;13.00;99.90;;;;;;5026515;28;19921;-64
2022/11/17 13:04:10;;;;;;;;;;;12.90;99.90;;;;;;5031367;28;19916;-65
2022/11/17 13:06:35;;;;;;;;;;;12.80;99.90;;;;;;5032217;28;19995;-65
2022/11/17 13:09:05;;;;;;;;;;;12.70;99.90;;;;;;5025933;28;19964;-67
2022/11/17 13:11:31;;;;;;;;;;;12.70;99.90;;;;;;5023752;28;19925;-66
2022/11/17 13:14:13;;;;;;;;;;;12.70;99.90;;;;;;5069614;28;19913;-64
2022/11/17 13:16:44;;;;;;;;;;;12.70;99.90;;;;;;5027730;28;19921;-64
2022/11/17 13:19:26;;;;;;;;;;;12.70;99.90;;;;;;5028557;28;20024;-64
2022/11/17 13:22:00;;;;;;;;;;;12.90;99.90;;;;;;5030668;28;19913;-65
2022/11/17 13:24:28;;;;;;;;;;;13.10;99.90;;;;;;5022891;28;19926;-69
2022/11/17 13:26:57;;;;;;;;;;;13.30;99.90;;;;;;5031663;28;20363;-65
2022/11/17 13:29:23;;;;;;;;;;;13.30;99.90;;;;;;5043360;28;19913;-65
2022/11/17 13:31:48;;;;;;;;;;;13.20;99.90;;;;;;5021752;28;19921;-65
2022/11/17 13:34:17;;;;;;;;;;;13.10;99.90;;;;;;5042045;28;19918;-66
2022/11/17 13:36:59;;;;;;;;;;;13.10;99.90;;;;;;5000193;28;20271;-66
2022/11/17 13:39:26;;;;;;;;;;;13.00;99.90;;;;;;5012598;28;19913;-66
2022/11/17 13:41:51;;;;;;;;;;;13.00;99.90;;;;;;5011586;28;20502;-66
2022/11/17 13:44:18;;;;;;;;;;;12.90;99.90;;;;;;5011088;28;19933;-66
2022/11/17 13:46:44;;;;;;;;;;;12.80;99.90;;;;;;5011993;28;20434;-66
2022/11/17 13:49:29;;;;;;;;;;;12.80;99.90;;;;;;5033329;28;19918;-66
2022/11/17 13:51:55;;;;;;;;;;;12.70;99.90;;;;;;5029669;28;19913;-66
2022/11/17 13:54:21;;;;;;;;;;;12.70;99.90;;;;;;5014970;28;20372;-66
2022/11/17 13:56:50;;;;;;;;;;;12.70;99.90;;;;;;5004036;28;19928;-66
2022/11/17 13:59:20;;;;;;;;;;;12.60;99.90;;;;;;5010794;28;19937;-67
2022/11/17 14:01:46;;;;;;;;;;;12.60;99.90;;;;;;5008961;28;19924;-66
2022/11/17 14:04:16;;;;;;;;;;;12.50;99.90;;;;;;5006718;28;20294;-67
2022/11/17 14:07:01;;;;;;;;;;;12.50;99.90;;;;;;5007207;28;19925;-66
2022/11/17 14:09:28;;;;;;;;;;;12.50;99.90;;;;;;5008164;28;19914;-66
2022/11/17 14:11:54;;;;;;;;;;;12.40;99.90;;;;;;5013768;28;19913;-67
2022/11/17 14:14:25;;;;;;;;;;;12.40;99.90;;;;;;5015247;28;19924;-66
2022/11/17 14:16:51;;;;;;;;;;;12.40;99.90;;;;;;5005727;28;19941;-67
2022/11/17 14:19:19;;;;;;;;;;;12.40;99.90;;;;;;5004322;28;19918;-70
2022/11/17 14:22:05;;;;;;;;;;;12.30;99.90;;;;;;5005370;28;19913;-68
2022/11/17 14:24:31;;;;;;;;;;;12.30;99.90;;;;;;5005593;28;19926;-66
2022/11/17 14:26:57;;;;;;;;;;;12.20;99.90;;;;;;5010293;28;19918;-67
2022/11/17 14:29:23;;;;;;;;;;;12.20;99.90;;;;;;5005981;28;19984;-66
2022/11/17 14:31:48;;;;;;;;;;;12.20;99.90;;;;;;5010970;28;19915;-67
2022/11/17 14:34:13;;;;;;;;;;;12.10;99.90;;;;;;5012046;28;19917;-67
2022/11/17 14:36:39;;;;;;;;;;;12.10;99.90;;;;;;5006356;28;20450;-66
2022/11/17 14:39:11;;;;;;;;;;;12.10;99.90;;;;;;5014918;28;19913;-68
2022/11/17 14:41:39;;;;;;;;;;;12.10;99.90;;;;;;5019342;28;19913;-66
2022/11/17 14:44:04;;;;;;;;;;;12.00;99.90;;;;;;5006485;28;20390;-66
2022/11/17 14:46:30;;;;;;;;;;;12.00;99.90;;;;;;5011345;28;19913;-67
2022/11/17 14:48:55;;;;;;;;;;;11.90;99.90;;;;;;5013841;28;20055;-66
2022/11/17 14:51:21;;;;;;;;;;;11.90;99.90;;;;;;5013737;28;19914;-66
2022/11/17 14:53:47;;;;;;;;;;;11.80;99.90;;;;;;5013275;28;20307;-67
2022/11/17 14:56:14;;;;;;;;;;;11.80;99.90;;;;;;5011015;28;19940;-66
2022/11/17 14:58:39;;;;;;;;;;;11.80;99.90;;;;;;5010803;28;20391;-67
2022/11/17 15:01:07;;;;;;;;;;;11.70;99.90;;;;;;5009618;28;19920;-68
2022/11/17 15:03:32;;;;;;;;;;;11.70;99.90;;;;;;5014797;28;19921;-67
2022/11/17 15:05:57;;;;;;;;;;;11.70;99.90;;;;;;5020007;28;20004;-66
2022/11/17 15:08:23;;;;;;;;;;;11.60;99.90;;;;;;5032328;28;20040;-67
2022/11/17 15:10:50;;;;;;;;;;;11.60;99.90;;;;;;5019183;28;19960;-66
2022/11/17 15:13:15;;;;;;;;;;;11.60;99.90;;;;;;5025244;28;19992;-67
2022/11/17 15:15:40;;;;;;;;;;;11.50;99.90;;;;;;5018481;28;20005;-66
2022/11/17 15:18:09;;;;;;;;;;;11.50;99.90;;;;;;5021159;28;19929;-67
2022/11/17 15:20:34;;;;;;;;;;;11.50;99.90;;;;;;5023832;28;19917;-67